sensor_id;sensor_type;location;lat;lon;timestamp;P1;durP1;ratioP1;P2;durP2;ratioP2
79204;SDS011;68632;47.512;19.104;2023-04-03T00:00:53;11.73;;;7.95;;
79204;SDS011;68632;47.512;19.104;2023-04-03T00:01:55;9.65;;;6.35;;
79204;SDS011;68632;47.512;19.104;2023-04-03T00:02:58;9.65;;;6.35;;
79204;SDS011;68632;47.512;19.104;2023-04-03T00:04:00;11.40;;;7.25;;
79204;SDS011;68632;47.512;19.104;2023-04-03T00:05:02;9.05;;;6.50;;
79204;SDS011;68632;47.512;19.104;2023-04-03T00:06:06;10.68;;;6.50;;
79204;SDS011;68632;47.512;19.104;2023-04-03T00:07:08;8.40;;;6.30;;
79204;SDS011;68632;47.512;19.104;2023-04-03T00:08:11;9.05;;;6.15;;
79204;SDS011;68632;47.512;19.104;2023-04-03T00:09:13;9.50;;;6.22;;
79204;SDS011;68632;47.512;19.104;2023-04-03T00:10:15;9.43;;;6.88;;
79204;SDS011;68632;47.512;19.104;2023-04-03T00:11:18;8.40;;;6.45;;
79204;SDS011;68632;47.512;19.104;2023-04-03T00:12:21;10.18;;;7.05;;
79204;SDS011;68632;47.512;19.104;2023-04-03T00:13:23;9.70;;;7.18;;
79204;SDS011;68632;47.512;19.104;2023-04-03T00:14:26;10.30;;;7.13;;
79204;SDS011;68632;47.512;19.104;2023-04-03T00:15:29;9.40;;;7.13;;
79204;SDS011;68632;47.512;19.104;2023-04-03T00:16:31;9.52;;;6.85;;
79204;SDS011;68632;47.512;19.104;2023-04-03T00:17:33;10.25;;;7.18;;
79204;SDS011;68632;47.512;19.104;2023-04-03T00:18:36;10.98;;;7.13;;
79204;SDS011;68632;47.512;19.104;2023-04-03T00:19:39;9.57;;;6.60;;
79204;SDS011;68632;47.512;19.104;2023-04-03T00:20:42;10.57;;;7.30;;
79204;SDS011;68632;47.512;19.104;2023-04-03T00:21:44;10.00;;;6.80;;
79204;SDS011;68632;47.512;19.104;2023-04-03T00:22:46;11.50;;;7.03;;
79204;SDS011;68632;47.512;19.104;2023-04-03T00:23:48;9.38;;;6.65;;
79204;SDS011;68632;47.512;19.104;2023-04-03T00:24:50;11.00;;;7.63;;
79204;SDS011;68632;47.512;19.104;2023-04-03T00:25:53;8.93;;;6.20;;
79204;SDS011;68632;47.512;19.104;2023-04-03T00:26:55;11.07;;;6.65;;
79204;SDS011;68632;47.512;19.104;2023-04-03T00:27:57;9.30;;;6.60;;
79204;SDS011;68632;47.512;19.104;2023-04-03T00:28:59;9.48;;;6.28;;
79204;SDS011;68632;47.512;19.104;2023-04-03T00:30:02;9.73;;;7.50;;
79204;SDS011;68632;47.512;19.104;2023-04-03T00:31:04;10.93;;;6.57;;
79204;SDS011;68632;47.512;19.104;2023-04-03T00:32:07;9.13;;;6.63;;
79204;SDS011;68632;47.512;19.104;2023-04-03T00:33:11;11.10;;;7.53;;
79204;SDS011;68632;47.512;19.104;2023-04-03T00:34:14;10.50;;;6.93;;
79204;SDS011;68632;47.512;19.104;2023-04-03T00:35:17;9.27;;;7.13;;
79204;SDS011;68632;47.512;19.104;2023-04-03T00:36:19;10.82;;;7.20;;
79204;SDS011;68632;47.512;19.104;2023-04-03T00:37:22;9.93;;;6.70;;
79204;SDS011;68632;47.512;19.104;2023-04-03T00:38:24;9.90;;;6.65;;
79204;SDS011;68632;47.512;19.104;2023-04-03T00:39:26;10.48;;;6.80;;
79204;SDS011;68632;47.512;19.104;2023-04-03T00:40:32;8.40;;;5.65;;
79204;SDS011;68632;47.512;19.104;2023-04-03T00:41:36;8.15;;;6.60;;
79204;SDS011;68632;47.512;19.104;2023-04-03T00:42:39;9.88;;;7.65;;
79204;SDS011;68632;47.512;19.104;2023-04-03T00:43:42;9.32;;;6.78;;
79204;SDS011;68632;47.512;19.104;2023-04-03T00:45:47;10.10;;;7.15;;
79204;SDS011;68632;47.512;19.104;2023-04-03T00:46:51;8.68;;;6.53;;
79204;SDS011;68632;47.512;19.104;2023-04-03T00:47:53;8.68;;;6.60;;
79204;SDS011;68632;47.512;19.104;2023-04-03T00:48:56;10.90;;;7.03;;
79204;SDS011;68632;47.512;19.104;2023-04-03T00:49:58;8.93;;;6.65;;
79204;SDS011;68632;47.512;19.104;2023-04-03T00:51:01;7.97;;;5.97;;
79204;SDS011;68632;47.512;19.104;2023-04-03T00:52:05;9.73;;;6.80;;
79204;SDS011;68632;47.512;19.104;2023-04-03T00:53:09;9.68;;;6.65;;
79204;SDS011;68632;47.512;19.104;2023-04-03T00:54:14;10.23;;;6.47;;
79204;SDS011;68632;47.512;19.104;2023-04-03T00:55:17;10.70;;;7.30;;
79204;SDS011;68632;47.512;19.104;2023-04-03T00:56:19;9.50;;;6.22;;
79204;SDS011;68632;47.512;19.104;2023-04-03T00:57:24;10.32;;;6.70;;
79204;SDS011;68632;47.512;19.104;2023-04-03T00:58:40;9.98;;;7.35;;
79204;SDS011;68632;47.512;19.104;2023-04-03T00:59:46;8.25;;;6.00;;
79204;SDS011;68632;47.512;19.104;2023-04-03T01:00:54;8.75;;;6.15;;
79204;SDS011;68632;47.512;19.104;2023-04-03T01:01:59;13.93;;;7.30;;
79204;SDS011;68632;47.512;19.104;2023-04-03T01:03:02;8.68;;;5.65;;
79204;SDS011;68632;47.512;19.104;2023-04-03T01:04:05;9.23;;;6.65;;
79204;SDS011;68632;47.512;19.104;2023-04-03T01:05:08;8.05;;;6.55;;
79204;SDS011;68632;47.512;19.104;2023-04-03T01:06:10;10.00;;;6.57;;
79204;SDS011;68632;47.512;19.104;2023-04-03T01:07:20;8.52;;;5.80;;
79204;SDS011;68632;47.512;19.104;2023-04-03T01:08:24;8.57;;;5.85;;
79204;SDS011;68632;47.512;19.104;2023-04-03T01:09:26;9.73;;;5.82;;
79204;SDS011;68632;47.512;19.104;2023-04-03T01:10:29;9.40;;;6.22;;
79204;SDS011;68632;47.512;19.104;2023-04-03T01:11:32;8.43;;;6.00;;
79204;SDS011;68632;47.512;19.104;2023-04-03T01:12:38;8.77;;;6.18;;
79204;SDS011;68632;47.512;19.104;2023-04-03T01:13:47;8.57;;;5.75;;
79204;SDS011;68632;47.512;19.104;2023-04-03T01:14:52;10.85;;;6.97;;
79204;SDS011;68632;47.512;19.104;2023-04-03T01:15:56;9.48;;;6.20;;
79204;SDS011;68632;47.512;19.104;2023-04-03T01:16:58;7.63;;;5.40;;
79204;SDS011;68632;47.512;19.104;2023-04-03T01:18:00;8.40;;;6.68;;
79204;SDS011;68632;47.512;19.104;2023-04-03T01:19:03;7.70;;;5.75;;
79204;SDS011;68632;47.512;19.104;2023-04-03T01:25:28;7.22;;;5.85;;
79204;SDS011;68632;47.512;19.104;2023-04-03T01:26:30;9.50;;;5.63;;
79204;SDS011;68632;47.512;19.104;2023-04-03T01:27:32;9.45;;;6.20;;
79204;SDS011;68632;47.512;19.104;2023-04-03T01:28:35;9.02;;;6.45;;
79204;SDS011;68632;47.512;19.104;2023-04-03T01:29:37;7.95;;;4.95;;
79204;SDS011;68632;47.512;19.104;2023-04-03T01:33:00;9.13;;;5.63;;
79204;SDS011;68632;47.512;19.104;2023-04-03T01:34:03;9.50;;;5.63;;
79204;SDS011;68632;47.512;19.104;2023-04-03T01:35:06;9.05;;;5.88;;
79204;SDS011;68632;47.512;19.104;2023-04-03T01:36:13;8.27;;;5.88;;
79204;SDS011;68632;47.512;19.104;2023-04-03T01:37:17;8.77;;;5.82;;
79204;SDS011;68632;47.512;19.104;2023-04-03T01:38:20;8.15;;;5.93;;
79204;SDS011;68632;47.512;19.104;2023-04-03T01:39:22;8.20;;;5.63;;
79204;SDS011;68632;47.512;19.104;2023-04-03T01:40:25;7.53;;;5.20;;
79204;SDS011;68632;47.512;19.104;2023-04-03T01:41:27;8.07;;;5.63;;
79204;SDS011;68632;47.512;19.104;2023-04-03T01:42:29;7.78;;;5.35;;
79204;SDS011;68632;47.512;19.104;2023-04-03T01:43:31;8.45;;;6.05;;
79204;SDS011;68632;47.512;19.104;2023-04-03T01:44:33;7.65;;;5.88;;
79204;SDS011;68632;47.512;19.104;2023-04-03T01:45:36;8.57;;;5.68;;
79204;SDS011;68632;47.512;19.104;2023-04-03T01:46:38;7.88;;;5.88;;
79204;SDS011;68632;47.512;19.104;2023-04-03T01:47:41;8.07;;;6.28;;
79204;SDS011;68632;47.512;19.104;2023-04-03T01:48:43;8.80;;;5.65;;
79204;SDS011;68632;47.512;19.104;2023-04-03T01:49:45;9.13;;;5.57;;
79204;SDS011;68632;47.512;19.104;2023-04-03T01:50:47;7.32;;;5.55;;
79204;SDS011;68632;47.512;19.104;2023-04-03T01:51:49;7.65;;;5.95;;
79204;SDS011;68632;47.512;19.104;2023-04-03T01:52:51;8.88;;;5.32;;
79204;SDS011;68632;47.512;19.104;2023-04-03T01:53:54;7.32;;;5.82;;
79204;SDS011;68632;47.512;19.104;2023-04-03T01:54:56;7.72;;;5.95;;
79204;SDS011;68632;47.512;19.104;2023-04-03T01:55:58;8.60;;;5.25;;
79204;SDS011;68632;47.512;19.104;2023-04-03T01:57:00;6.68;;;4.82;;
79204;SDS011;68632;47.512;19.104;2023-04-03T01:58:02;6.72;;;5.00;;
79204;SDS011;68632;47.512;19.104;2023-04-03T01:59:04;8.13;;;5.97;;
79204;SDS011;68632;47.512;19.104;2023-04-03T02:00:07;6.78;;;5.25;;
79204;SDS011;68632;47.512;19.104;2023-04-03T02:01:09;7.07;;;5.25;;
79204;SDS011;68632;47.512;19.104;2023-04-03T02:02:12;8.82;;;4.90;;
79204;SDS011;68632;47.512;19.104;2023-04-03T02:03:16;8.10;;;5.07;;
79204;SDS011;68632;47.512;19.104;2023-04-03T02:04:18;6.53;;;4.47;;
79204;SDS011;68632;47.512;19.104;2023-04-03T02:05:20;6.57;;;5.22;;
79204;SDS011;68632;47.512;19.104;2023-04-03T02:06:23;7.97;;;4.93;;
79204;SDS011;68632;47.512;19.104;2023-04-03T02:07:25;7.55;;;4.72;;
79204;SDS011;68632;47.512;19.104;2023-04-03T02:08:27;8.23;;;4.97;;
79204;SDS011;68632;47.512;19.104;2023-04-03T02:09:29;7.50;;;5.30;;
79204;SDS011;68632;47.512;19.104;2023-04-03T02:10:32;7.15;;;4.93;;
79204;SDS011;68632;47.512;19.104;2023-04-03T02:11:34;7.53;;;5.68;;
79204;SDS011;68632;47.512;19.104;2023-04-03T02:12:36;6.90;;;5.05;;
79204;SDS011;68632;47.512;19.104;2023-04-03T02:13:38;6.90;;;4.90;;
79204;SDS011;68632;47.512;19.104;2023-04-03T02:14:40;7.25;;;5.00;;
79204;SDS011;68632;47.512;19.104;2023-04-03T02:15:42;7.18;;;4.97;;
79204;SDS011;68632;47.512;19.104;2023-04-03T02:16:45;7.45;;;4.82;;
79204;SDS011;68632;47.512;19.104;2023-04-03T02:17:47;8.85;;;4.55;;
79204;SDS011;68632;47.512;19.104;2023-04-03T02:18:49;8.30;;;5.85;;
79204;SDS011;68632;47.512;19.104;2023-04-03T02:19:52;8.10;;;6.10;;
79204;SDS011;68632;47.512;19.104;2023-04-03T02:20:54;8.70;;;5.35;;
79204;SDS011;68632;47.512;19.104;2023-04-03T02:21:56;8.00;;;4.97;;
79204;SDS011;68632;47.512;19.104;2023-04-03T02:22:58;7.18;;;4.60;;
79204;SDS011;68632;47.512;19.104;2023-04-03T02:24:01;7.43;;;5.35;;
79204;SDS011;68632;47.512;19.104;2023-04-03T02:25:03;6.82;;;4.43;;
79204;SDS011;68632;47.512;19.104;2023-04-03T02:26:09;7.68;;;4.47;;
79204;SDS011;68632;47.512;19.104;2023-04-03T02:27:13;8.23;;;5.00;;
79204;SDS011;68632;47.512;19.104;2023-04-03T02:28:16;7.53;;;5.30;;
79204;SDS011;68632;47.512;19.104;2023-04-03T02:29:18;8.00;;;4.90;;
79204;SDS011;68632;47.512;19.104;2023-04-03T02:30:21;7.03;;;5.05;;
79204;SDS011;68632;47.512;19.104;2023-04-03T02:31:23;6.85;;;5.13;;
79204;SDS011;68632;47.512;19.104;2023-04-03T02:32:26;7.47;;;4.47;;
79204;SDS011;68632;47.512;19.104;2023-04-03T02:33:28;7.10;;;4.80;;
79204;SDS011;68632;47.512;19.104;2023-04-03T02:34:30;7.30;;;5.20;;
79204;SDS011;68632;47.512;19.104;2023-04-03T02:35:32;7.65;;;5.15;;
79204;SDS011;68632;47.512;19.104;2023-04-03T02:36:34;5.35;;;4.30;;
79204;SDS011;68632;47.512;19.104;2023-04-03T02:37:37;8.55;;;5.40;;
79204;SDS011;68632;47.512;19.104;2023-04-03T02:38:39;7.10;;;5.22;;
79204;SDS011;68632;47.512;19.104;2023-04-03T02:39:41;5.90;;;4.18;;
79204;SDS011;68632;47.512;19.104;2023-04-03T02:40:43;6.10;;;4.60;;
79204;SDS011;68632;47.512;19.104;2023-04-03T02:41:45;7.63;;;5.60;;
79204;SDS011;68632;47.512;19.104;2023-04-03T02:42:48;5.78;;;4.65;;
79204;SDS011;68632;47.512;19.104;2023-04-03T02:43:50;7.82;;;5.47;;
79204;SDS011;68632;47.512;19.104;2023-04-03T02:44:52;6.35;;;4.70;;
79204;SDS011;68632;47.512;19.104;2023-04-03T02:45:54;7.03;;;5.03;;
79204;SDS011;68632;47.512;19.104;2023-04-03T02:46:56;7.05;;;4.85;;
79204;SDS011;68632;47.512;19.104;2023-04-03T02:47:58;6.80;;;4.93;;
79204;SDS011;68632;47.512;19.104;2023-04-03T02:49:01;6.75;;;4.90;;
79204;SDS011;68632;47.512;19.104;2023-04-03T02:50:03;7.57;;;5.32;;
79204;SDS011;68632;47.512;19.104;2023-04-03T02:51:06;6.63;;;5.15;;
79204;SDS011;68632;47.512;19.104;2023-04-03T02:52:08;6.80;;;4.65;;
79204;SDS011;68632;47.512;19.104;2023-04-03T02:53:11;7.72;;;4.95;;
79204;SDS011;68632;47.512;19.104;2023-04-03T02:54:13;7.00;;;4.82;;
79204;SDS011;68632;47.512;19.104;2023-04-03T02:55:15;5.63;;;4.10;;
79204;SDS011;68632;47.512;19.104;2023-04-03T02:56:17;6.93;;;5.47;;
79204;SDS011;68632;47.512;19.104;2023-04-03T02:57:21;6.85;;;5.13;;
79204;SDS011;68632;47.512;19.104;2023-04-03T02:58:23;7.45;;;4.65;;
79204;SDS011;68632;47.512;19.104;2023-04-03T02:59:25;7.63;;;5.68;;
79204;SDS011;68632;47.512;19.104;2023-04-03T03:00:27;6.93;;;4.82;;
79204;SDS011;68632;47.512;19.104;2023-04-03T03:01:29;6.05;;;4.20;;
79204;SDS011;68632;47.512;19.104;2023-04-03T03:02:34;7.60;;;4.70;;
79204;SDS011;68632;47.512;19.104;2023-04-03T03:03:36;6.40;;;4.53;;
79204;SDS011;68632;47.512;19.104;2023-04-03T03:04:39;7.10;;;5.25;;
79204;SDS011;68632;47.512;19.104;2023-04-03T03:05:41;5.85;;;4.15;;
79204;SDS011;68632;47.512;19.104;2023-04-03T03:06:43;6.95;;;4.70;;
79204;SDS011;68632;47.512;19.104;2023-04-03T03:07:45;6.53;;;4.50;;
79204;SDS011;68632;47.512;19.104;2023-04-03T03:08:48;6.15;;;4.55;;
79204;SDS011;68632;47.512;19.104;2023-04-03T03:09:50;6.25;;;4.60;;
79204;SDS011;68632;47.512;19.104;2023-04-03T03:10:52;7.78;;;4.72;;
79204;SDS011;68632;47.512;19.104;2023-04-03T03:11:54;6.55;;;4.28;;
79204;SDS011;68632;47.512;19.104;2023-04-03T03:12:56;7.32;;;4.45;;
79204;SDS011;68632;47.512;19.104;2023-04-03T03:13:59;6.95;;;5.50;;
79204;SDS011;68632;47.512;19.104;2023-04-03T03:15:01;7.78;;;4.95;;
79204;SDS011;68632;47.512;19.104;2023-04-03T03:16:03;7.57;;;4.82;;
79204;SDS011;68632;47.512;19.104;2023-04-03T03:17:06;7.35;;;5.22;;
79204;SDS011;68632;47.512;19.104;2023-04-03T03:18:08;6.38;;;4.68;;
79204;SDS011;68632;47.512;19.104;2023-04-03T03:19:10;7.43;;;4.70;;
79204;SDS011;68632;47.512;19.104;2023-04-03T03:20:12;6.78;;;4.93;;
79204;SDS011;68632;47.512;19.104;2023-04-03T03:21:18;6.43;;;4.85;;
79204;SDS011;68632;47.512;19.104;2023-04-03T03:22:20;6.60;;;4.68;;
79204;SDS011;68632;47.512;19.104;2023-04-03T03:23:22;7.07;;;5.10;;
79204;SDS011;68632;47.512;19.104;2023-04-03T03:24:25;6.78;;;4.85;;
79204;SDS011;68632;47.512;19.104;2023-04-03T03:25:28;7.90;;;4.75;;
79204;SDS011;68632;47.512;19.104;2023-04-03T03:26:30;7.18;;;5.00;;
79204;SDS011;68632;47.512;19.104;2023-04-03T03:27:32;6.88;;;5.05;;
79204;SDS011;68632;47.512;19.104;2023-04-03T03:28:35;6.70;;;4.68;;
79204;SDS011;68632;47.512;19.104;2023-04-03T03:29:38;6.53;;;4.90;;
79204;SDS011;68632;47.512;19.104;2023-04-03T03:30:40;7.15;;;4.32;;
79204;SDS011;68632;47.512;19.104;2023-04-03T03:31:42;6.10;;;4.68;;
79204;SDS011;68632;47.512;19.104;2023-04-03T03:32:44;7.28;;;4.57;;
79204;SDS011;68632;47.512;19.104;2023-04-03T03:33:47;6.28;;;4.70;;
79204;SDS011;68632;47.512;19.104;2023-04-03T03:34:50;7.38;;;4.72;;
79204;SDS011;68632;47.512;19.104;2023-04-03T03:35:52;7.30;;;5.72;;
79204;SDS011;68632;47.512;19.104;2023-04-03T03:36:55;7.68;;;5.15;;
79204;SDS011;68632;47.512;19.104;2023-04-03T03:37:57;5.95;;;4.45;;
79204;SDS011;68632;47.512;19.104;2023-04-03T03:38:59;7.30;;;5.38;;
79204;SDS011;68632;47.512;19.104;2023-04-03T03:40:02;8.65;;;6.25;;
79204;SDS011;68632;47.512;19.104;2023-04-03T03:41:04;7.55;;;5.43;;
79204;SDS011;68632;47.512;19.104;2023-04-03T03:42:06;9.13;;;5.07;;
79204;SDS011;68632;47.512;19.104;2023-04-03T03:43:08;7.40;;;5.10;;
79204;SDS011;68632;47.512;19.104;2023-04-03T03:44:11;7.15;;;5.70;;
79204;SDS011;68632;47.512;19.104;2023-04-03T03:45:15;7.22;;;6.13;;
79204;SDS011;68632;47.512;19.104;2023-04-03T03:46:17;8.93;;;5.75;;
79204;SDS011;68632;47.512;19.104;2023-04-03T03:47:19;8.02;;;6.00;;
79204;SDS011;68632;47.512;19.104;2023-04-03T03:48:22;6.63;;;4.45;;
79204;SDS011;68632;47.512;19.104;2023-04-03T03:49:24;6.63;;;5.07;;
79204;SDS011;68632;47.512;19.104;2023-04-03T03:50:26;7.15;;;5.53;;
79204;SDS011;68632;47.512;19.104;2023-04-03T03:51:28;6.10;;;4.57;;
79204;SDS011;68632;47.512;19.104;2023-04-03T03:52:31;6.93;;;5.05;;
79204;SDS011;68632;47.512;19.104;2023-04-03T03:53:33;6.93;;;5.15;;
79204;SDS011;68632;47.512;19.104;2023-04-03T03:54:36;8.43;;;6.00;;
79204;SDS011;68632;47.512;19.104;2023-04-03T03:55:38;8.27;;;5.40;;
79204;SDS011;68632;47.512;19.104;2023-04-03T03:56:41;8.50;;;6.53;;
79204;SDS011;68632;47.512;19.104;2023-04-03T03:57:43;8.45;;;5.35;;
79204;SDS011;68632;47.512;19.104;2023-04-03T03:58:45;7.57;;;5.97;;
79204;SDS011;68632;47.512;19.104;2023-04-03T03:59:47;8.20;;;5.85;;
79204;SDS011;68632;47.512;19.104;2023-04-03T04:00:50;7.95;;;5.50;;
79204;SDS011;68632;47.512;19.104;2023-04-03T04:01:52;7.82;;;5.45;;
79204;SDS011;68632;47.512;19.104;2023-04-03T04:02:55;8.07;;;6.72;;
79204;SDS011;68632;47.512;19.104;2023-04-03T04:04:00;8.48;;;5.38;;
79204;SDS011;68632;47.512;19.104;2023-04-03T04:05:02;9.10;;;5.82;;
79204;SDS011;68632;47.512;19.104;2023-04-03T04:06:04;7.65;;;5.00;;
79204;SDS011;68632;47.512;19.104;2023-04-03T04:07:06;7.57;;;5.60;;
79204;SDS011;68632;47.512;19.104;2023-04-03T04:08:09;7.75;;;4.78;;
79204;SDS011;68632;47.512;19.104;2023-04-03T04:09:11;9.77;;;6.80;;
79204;SDS011;68632;47.512;19.104;2023-04-03T04:10:14;7.82;;;5.78;;
79204;SDS011;68632;47.512;19.104;2023-04-03T04:11:16;7.78;;;6.45;;
79204;SDS011;68632;47.512;19.104;2023-04-03T04:12:18;6.72;;;4.85;;
79204;SDS011;68632;47.512;19.104;2023-04-03T04:13:22;9.48;;;6.07;;
79204;SDS011;68632;47.512;19.104;2023-04-03T04:14:24;8.63;;;5.78;;
79204;SDS011;68632;47.512;19.104;2023-04-03T04:15:26;8.68;;;5.63;;
79204;SDS011;68632;47.512;19.104;2023-04-03T04:16:28;9.43;;;5.80;;
79204;SDS011;68632;47.512;19.104;2023-04-03T04:17:31;8.38;;;5.65;;
79204;SDS011;68632;47.512;19.104;2023-04-03T04:18:33;9.95;;;5.88;;
79204;SDS011;68632;47.512;19.104;2023-04-03T04:19:35;7.80;;;5.50;;
79204;SDS011;68632;47.512;19.104;2023-04-03T04:20:38;7.78;;;5.35;;
79204;SDS011;68632;47.512;19.104;2023-04-03T04:21:40;6.80;;;5.03;;
79204;SDS011;68632;47.512;19.104;2023-04-03T04:22:43;8.55;;;5.55;;
79204;SDS011;68632;47.512;19.104;2023-04-03T04:23:45;8.35;;;5.80;;
79204;SDS011;68632;47.512;19.104;2023-04-03T04:24:47;9.15;;;5.70;;
79204;SDS011;68632;47.512;19.104;2023-04-03T04:25:49;8.73;;;6.10;;
79204;SDS011;68632;47.512;19.104;2023-04-03T04:26:51;8.13;;;5.32;;
79204;SDS011;68632;47.512;19.104;2023-04-03T04:27:54;7.70;;;5.97;;
79204;SDS011;68632;47.512;19.104;2023-04-03T04:28:56;8.68;;;5.97;;
79204;SDS011;68632;47.512;19.104;2023-04-03T04:29:58;8.18;;;5.95;;
79204;SDS011;68632;47.512;19.104;2023-04-03T04:31:00;8.85;;;6.13;;
79204;SDS011;68632;47.512;19.104;2023-04-03T04:32:03;7.80;;;4.82;;
79204;SDS011;68632;47.512;19.104;2023-04-03T04:33:05;7.90;;;5.35;;
79204;SDS011;68632;47.512;19.104;2023-04-03T04:34:08;9.77;;;6.40;;
79204;SDS011;68632;47.512;19.104;2023-04-03T04:35:10;8.60;;;5.45;;
79204;SDS011;68632;47.512;19.104;2023-04-03T04:36:16;9.02;;;6.20;;
79204;SDS011;68632;47.512;19.104;2023-04-03T04:37:18;10.13;;;6.38;;
79204;SDS011;68632;47.512;19.104;2023-04-03T04:38:20;9.70;;;5.88;;
79204;SDS011;68632;47.512;19.104;2023-04-03T04:39:22;8.15;;;5.70;;
79204;SDS011;68632;47.512;19.104;2023-04-03T04:40:25;9.00;;;6.35;;
79204;SDS011;68632;47.512;19.104;2023-04-03T04:41:27;8.63;;;6.20;;
79204;SDS011;68632;47.512;19.104;2023-04-03T04:42:29;8.55;;;6.18;;
79204;SDS011;68632;47.512;19.104;2023-04-03T04:43:31;8.30;;;6.07;;
79204;SDS011;68632;47.512;19.104;2023-04-03T04:44:33;9.63;;;6.88;;
79204;SDS011;68632;47.512;19.104;2023-04-03T04:45:36;8.88;;;5.95;;
79204;SDS011;68632;47.512;19.104;2023-04-03T04:46:38;9.40;;;6.80;;
79204;SDS011;68632;47.512;19.104;2023-04-03T04:47:41;8.77;;;5.63;;
79204;SDS011;68632;47.512;19.104;2023-04-03T04:48:43;10.10;;;7.32;;
79204;SDS011;68632;47.512;19.104;2023-04-03T04:49:46;10.60;;;7.50;;
79204;SDS011;68632;47.512;19.104;2023-04-03T04:50:49;8.73;;;6.05;;
79204;SDS011;68632;47.512;19.104;2023-04-03T04:51:51;7.63;;;5.63;;
79204;SDS011;68632;47.512;19.104;2023-04-03T04:52:53;9.13;;;5.88;;
79204;SDS011;68632;47.512;19.104;2023-04-03T04:53:55;8.60;;;6.38;;
79204;SDS011;68632;47.512;19.104;2023-04-03T04:54:57;8.20;;;4.93;;
79204;SDS011;68632;47.512;19.104;2023-04-03T04:55:59;9.68;;;6.47;;
79204;SDS011;68632;47.512;19.104;2023-04-03T04:57:02;7.63;;;5.07;;
79204;SDS011;68632;47.512;19.104;2023-04-03T04:58:04;9.80;;;6.20;;
79204;SDS011;68632;47.512;19.104;2023-04-03T04:59:06;8.73;;;5.88;;
79204;SDS011;68632;47.512;19.104;2023-04-03T05:00:08;12.27;;;6.15;;
79204;SDS011;68632;47.512;19.104;2023-04-03T05:01:11;11.57;;;6.13;;
79204;SDS011;68632;47.512;19.104;2023-04-03T05:02:13;9.35;;;6.50;;
79204;SDS011;68632;47.512;19.104;2023-04-03T05:03:16;6.80;;;4.60;;
79204;SDS011;68632;47.512;19.104;2023-04-03T05:04:18;8.38;;;6.15;;
79204;SDS011;68632;47.512;19.104;2023-04-03T05:05:21;9.40;;;5.80;;
79204;SDS011;68632;47.512;19.104;2023-04-03T05:06:24;8.88;;;5.80;;
79204;SDS011;68632;47.512;19.104;2023-04-03T05:07:26;7.97;;;5.97;;
79204;SDS011;68632;47.512;19.104;2023-04-03T05:08:28;10.98;;;6.28;;
79204;SDS011;68632;47.512;19.104;2023-04-03T05:09:30;10.50;;;6.68;;
79204;SDS011;68632;47.512;19.104;2023-04-03T05:10:32;10.50;;;6.18;;
79204;SDS011;68632;47.512;19.104;2023-04-03T05:11:35;10.73;;;6.70;;
79204;SDS011;68632;47.512;19.104;2023-04-03T05:12:37;10.38;;;6.72;;
79204;SDS011;68632;47.512;19.104;2023-04-03T05:13:40;10.20;;;5.85;;
79204;SDS011;68632;47.512;19.104;2023-04-03T05:14:42;8.55;;;5.75;;
79204;SDS011;68632;47.512;19.104;2023-04-03T05:15:45;8.15;;;5.57;;
79204;SDS011;68632;47.512;19.104;2023-04-03T05:16:47;9.05;;;6.13;;
79204;SDS011;68632;47.512;19.104;2023-04-03T05:17:53;9.55;;;5.18;;
79204;SDS011;68632;47.512;19.104;2023-04-03T05:18:55;8.70;;;5.32;;
79204;SDS011;68632;47.512;19.104;2023-04-03T05:19:57;7.90;;;6.30;;
79204;SDS011;68632;47.512;19.104;2023-04-03T05:20:59;9.32;;;5.72;;
79204;SDS011;68632;47.512;19.104;2023-04-03T05:22:01;11.23;;;5.85;;
79204;SDS011;68632;47.512;19.104;2023-04-03T05:23:04;7.20;;;5.38;;
79204;SDS011;68632;47.512;19.104;2023-04-03T05:24:07;8.77;;;6.55;;
79204;SDS011;68632;47.512;19.104;2023-04-03T05:25:11;10.43;;;6.85;;
79204;SDS011;68632;47.512;19.104;2023-04-03T05:26:13;9.20;;;6.00;;
79204;SDS011;68632;47.512;19.104;2023-04-03T05:27:15;10.13;;;6.75;;
79204;SDS011;68632;47.512;19.104;2023-04-03T05:28:18;8.70;;;6.10;;
79204;SDS011;68632;47.512;19.104;2023-04-03T05:29:21;7.63;;;5.57;;
79204;SDS011;68632;47.512;19.104;2023-04-03T05:30:23;8.55;;;6.22;;
79204;SDS011;68632;47.512;19.104;2023-04-03T05:31:26;8.27;;;4.63;;
79204;SDS011;68632;47.512;19.104;2023-04-03T05:32:31;9.88;;;6.35;;
79204;SDS011;68632;47.512;19.104;2023-04-03T05:33:33;8.85;;;5.70;;
79204;SDS011;68632;47.512;19.104;2023-04-03T05:34:35;9.57;;;5.93;;
79204;SDS011;68632;47.512;19.104;2023-04-03T05:35:38;7.50;;;5.45;;
79204;SDS011;68632;47.512;19.104;2023-04-03T05:36:43;8.82;;;6.00;;
79204;SDS011;68632;47.512;19.104;2023-04-03T05:37:46;11.30;;;6.15;;
79204;SDS011;68632;47.512;19.104;2023-04-03T05:38:48;8.23;;;5.90;;
79204;SDS011;68632;47.512;19.104;2023-04-03T05:39:51;7.55;;;5.53;;
79204;SDS011;68632;47.512;19.104;2023-04-03T05:40:53;8.52;;;5.70;;
79204;SDS011;68632;47.512;19.104;2023-04-03T05:41:55;10.52;;;5.93;;
79204;SDS011;68632;47.512;19.104;2023-04-03T05:42:57;10.05;;;5.68;;
79204;SDS011;68632;47.512;19.104;2023-04-03T05:43:59;8.15;;;6.00;;
79204;SDS011;68632;47.512;19.104;2023-04-03T05:45:02;10.40;;;7.03;;
79204;SDS011;68632;47.512;19.104;2023-04-03T05:46:08;9.65;;;5.68;;
79204;SDS011;68632;47.512;19.104;2023-04-03T05:47:14;9.43;;;6.05;;
79204;SDS011;68632;47.512;19.104;2023-04-03T05:48:16;9.38;;;6.53;;
79204;SDS011;68632;47.512;19.104;2023-04-03T05:49:18;8.55;;;5.75;;
79204;SDS011;68632;47.512;19.104;2023-04-03T05:50:21;7.95;;;6.07;;
79204;SDS011;68632;47.512;19.104;2023-04-03T05:51:24;9.23;;;5.75;;
79204;SDS011;68632;47.512;19.104;2023-04-03T05:52:28;11.55;;;6.25;;
79204;SDS011;68632;47.512;19.104;2023-04-03T05:53:33;8.75;;;6.25;;
79204;SDS011;68632;47.512;19.104;2023-04-03T05:54:38;9.80;;;5.47;;
79204;SDS011;68632;47.512;19.104;2023-04-03T05:55:41;12.80;;;6.07;;
79204;SDS011;68632;47.512;19.104;2023-04-03T05:56:43;10.30;;;6.20;;
79204;SDS011;68632;47.512;19.104;2023-04-03T05:57:45;9.18;;;6.32;;
79204;SDS011;68632;47.512;19.104;2023-04-03T05:58:47;9.98;;;5.63;;
79204;SDS011;68632;47.512;19.104;2023-04-03T05:59:49;8.23;;;5.35;;
79204;SDS011;68632;47.512;19.104;2023-04-03T06:00:52;8.82;;;5.80;;
79204;SDS011;68632;47.512;19.104;2023-04-03T06:01:54;8.43;;;5.68;;
79204;SDS011;68632;47.512;19.104;2023-04-03T06:02:57;9.05;;;5.93;;
79204;SDS011;68632;47.512;19.104;2023-04-03T06:03:59;7.93;;;5.78;;
79204;SDS011;68632;47.512;19.104;2023-04-03T06:05:02;8.85;;;6.00;;
79204;SDS011;68632;47.512;19.104;2023-04-03T06:06:05;7.93;;;4.47;;
79204;SDS011;68632;47.512;19.104;2023-04-03T06:07:09;8.70;;;6.15;;
79204;SDS011;68632;47.512;19.104;2023-04-03T06:08:17;8.05;;;5.57;;
79204;SDS011;68632;47.512;19.104;2023-04-03T06:09:20;11.55;;;5.35;;
79204;SDS011;68632;47.512;19.104;2023-04-03T06:10:24;8.40;;;5.57;;
79204;SDS011;68632;47.512;19.104;2023-04-03T06:11:26;8.68;;;6.03;;
79204;SDS011;68632;47.512;19.104;2023-04-03T06:12:29;9.00;;;7.03;;
79204;SDS011;68632;47.512;19.104;2023-04-03T06:13:31;8.10;;;5.70;;
79204;SDS011;68632;47.512;19.104;2023-04-03T06:14:34;8.07;;;5.90;;
79204;SDS011;68632;47.512;19.104;2023-04-03T06:15:36;7.10;;;5.13;;
79204;SDS011;68632;47.512;19.104;2023-04-03T06:16:40;9.00;;;5.97;;
79204;SDS011;68632;47.512;19.104;2023-04-03T06:17:42;8.30;;;5.13;;
79204;SDS011;68632;47.512;19.104;2023-04-03T06:18:45;9.20;;;6.18;;
79204;SDS011;68632;47.512;19.104;2023-04-03T06:19:47;9.38;;;5.43;;
79204;SDS011;68632;47.512;19.104;2023-04-03T06:20:49;12.77;;;5.75;;